sensor_id;sensor_type;location;lat;lon;timestamp;pressure;altitude;pressure_sealevel;temperature;humidity
19596;BME280;9945;46.010;8.946;2024-02-28T00:01:10;96882.03;;;10.31;100.00
19596;BME280;9945;46.010;8.946;2024-02-28T00:03:36;96881.91;;;10.33;100.00
19596;BME280;9945;46.010;8.946;2024-02-28T00:06:04;96877.50;;;10.15;100.00
19596;BME280;9945;46.010;8.946;2024-02-28T00:08:31;96882.59;;;10.17;100.00
19596;BME280;9945;46.010;8.946;2024-02-28T00:10:59;96881.91;;;10.15;100.00
19596;BME280;9945;46.010;8.946;2024-02-28T00:13:26;96882.16;;;10.21;100.00
19596;BME280;9945;46.010;8.946;2024-02-28T00:15:53;96882.53;;;10.27;100.00
19596;BME280;9945;46.010;8.946;2024-02-28T00:18:20;96892.38;;;10.33;100.00
19596;BME280;9945;46.010;8.946;2024-02-28T00:20:46;96891.88;;;10.29;100.00
19596;BME280;9945;46.010;8.946;2024-02-28T00:23:13;96891.53;;;10.32;100.00
19596;BME280;9945;46.010;8.946;2024-02-28T00:25:40;96899.09;;;10.35;100.00
19596;BME280;9945;46.010;8.946;2024-02-28T00:28:09;96892.38;;;10.33;100.00
19596;BME280;9945;46.010;8.946;2024-02-28T00:30:35;96902.78;;;10.24;100.00
19596;BME280;9945;46.010;8.946;2024-02-28T00:33:02;96901.84;;;10.34;100.00
19596;BME280;9945;46.010;8.946;2024-02-28T00:35:32;96908.25;;;10.39;100.00
19596;BME280;9945;46.010;8.946;2024-02-28T00:37:59;96910.59;;;10.42;100.00
19596;BME280;9945;46.010;8.946;2024-02-28T00:40:26;96909.75;;;10.42;100.00
19596;BME280;9945;46.010;8.946;2024-02-28T00:42:54;96914.41;;;10.30;100.00
19596;BME280;9945;46.010;8.946;2024-02-28T00:45:22;96907.91;;;10.34;100.00
19596;BME280;9945;46.010;8.946;2024-02-28T00:47:49;96915.13;;;10.40;100.00
19596;BME280;9945;46.010;8.946;2024-02-28T00:50:16;96916.63;;;10.43;100.00
19596;BME280;9945;46.010;8.946;2024-02-28T00:52:43;96924.97;;;10.46;100.00
19596;BME280;9945;46.010;8.946;2024-02-28T00:55:09;96923.38;;;10.45;100.00
19596;BME280;9945;46.010;8.946;2024-02-28T00:57:36;96920.75;;;10.45;100.00
19596;BME280;9945;46.010;8.946;2024-02-28T01:00:04;96921.03;;;10.42;100.00
19596;BME280;9945;46.010;8.946;2024-02-28T01:02:33;96930.03;;;10.40;100.00
19596;BME280;9945;46.010;8.946;2024-02-28T01:05:00;96935.78;;;10.43;100.00
19596;BME280;9945;46.010;8.946;2024-02-28T01:07:27;96936.56;;;10.36;100.00
19596;BME280;9945;46.010;8.946;2024-02-28T01:09:54;96937.91;;;10.48;100.00
19596;BME280;9945;46.010;8.946;2024-02-28T01:12:21;96947.41;;;10.49;100.00
19596;BME280;9945;46.010;8.946;2024-02-28T01:14:47;96947.47;;;10.31;100.00
19596;BME280;9945;46.010;8.946;2024-02-28T01:17:14;96951.09;;;10.38;100.00
19596;BME280;9945;46.010;8.946;2024-02-28T01:19:42;96959.56;;;10.32;100.00
19596;BME280;9945;46.010;8.946;2024-02-28T01:22:09;96964.94;;;10.31;100.00
19596;BME280;9945;46.010;8.946;2024-02-28T01:24:36;96954.34;;;10.32;100.00
19596;BME280;9945;46.010;8.946;2024-02-28T01:27:03;96955.69;;;10.36;100.00
19596;BME280;9945;46.010;8.946;2024-02-28T01:29:30;96962.91;;;10.42;100.00
19596;BME280;9945;46.010;8.946;2024-02-28T01:31:57;96963.06;;;10.41;100.00
19596;BME280;9945;46.010;8.946;2024-02-28T01:34:23;96955.06;;;10.42;100.00
19596;BME280;9945;46.010;8.946;2024-02-28T01:36:52;96956.72;;;10.43;100.00
19596;BME280;9945;46.010;8.946;2024-02-28T01:39:18;96957.53;;;10.44;100.00
19596;BME280;9945;46.010;8.946;2024-02-28T01:41:51;96967.84;;;10.45;100.00
19596;BME280;9945;46.010;8.946;2024-02-28T01:44:18;96968.44;;;10.39;100.00
19596;BME280;9945;46.010;8.946;2024-02-28T01:46:45;96970.47;;;10.45;100.00
19596;BME280;9945;46.010;8.946;2024-02-28T01:49:13;96969.19;;;10.49;100.00
19596;BME280;9945;46.010;8.946;2024-02-28T01:51:41;96966.56;;;10.49;100.00
19596;BME280;9945;46.010;8.946;2024-02-28T01:54:10;96958.56;;;10.51;100.00
19596;BME280;9945;46.010;8.946;2024-02-28T01:56:37;96967.09;;;10.53;100.00
19596;BME280;9945;46.010;8.946;2024-02-28T01:59:05;96955.66;;;10.54;100.00
19596;BME280;9945;46.010;8.946;2024-02-28T02:01:33;96973.75;;;10.47;100.00
19596;BME280;9945;46.010;8.946;2024-02-28T02:04:00;96979.78;;;10.48;100.00
19596;BME280;9945;46.010;8.946;2024-02-28T02:06:27;96976.63;;;10.36;100.00
19596;BME280;9945;46.010;8.946;2024-02-28T02:08:54;96990.75;;;10.26;100.00
19596;BME280;9945;46.010;8.946;2024-02-28T02:11:23;97000.03;;;10.02;100.00
19596;BME280;9945;46.010;8.946;2024-02-28T02:13:52;96991.94;;;10.13;100.00
19596;BME280;9945;46.010;8.946;2024-02-28T02:16:19;96992.63;;;10.33;100.00
19596;BME280;9945;46.010;8.946;2024-02-28T02:18:48;96997.16;;;10.49;100.00
19596;BME280;9945;46.010;8.946;2024-02-28T02:21:18;96993.25;;;10.53;100.00
19596;BME280;9945;46.010;8.946;2024-02-28T02:23:48;96993.41;;;10.51;100.00
19596;BME280;9945;46.010;8.946;2024-02-28T02:26:15;96996.47;;;10.47;100.00
19596;BME280;9945;46.010;8.946;2024-02-28T02:28:42;96993.41;;;10.51;100.00
19596;BME280;9945;46.010;8.946;2024-02-28T02:31:11;96995.06;;;10.52;100.00
19596;BME280;9945;46.010;8.946;2024-02-28T02:33:38;96997.81;;;10.51;100.00
19596;BME280;9945;46.010;8.946;2024-02-28T02:36:05;96989.34;;;10.57;100.00
19596;BME280;9945;46.010;8.946;2024-02-28T02:38:32;96992.78;;;10.57;100.00
19596;BME280;9945;46.010;8.946;2024-02-28T02:41:01;96994.72;;;10.55;100.00
19596;BME280;9945;46.010;8.946;2024-02-28T02:43:28;96987.25;;;10.60;100.00
19596;BME280;9945;46.010;8.946;2024-02-28T02:45:55;96991.53;;;10.61;100.00
19596;BME280;9945;46.010;8.946;2024-02-28T02:48:22;96998.03;;;10.57;100.00
19596;BME280;9945;46.010;8.946;2024-02-28T02:50:49;97005.47;;;10.44;100.00
19596;BME280;9945;46.010;8.946;2024-02-28T02:53:16;97007.47;;;10.50;100.00
19596;BME280;9945;46.010;8.946;2024-02-28T02:55:43;96995.81;;;10.45;100.00
19596;BME280;9945;46.010;8.946;2024-02-28T02:58:11;97008.72;;;10.46;100.00
19596;BME280;9945;46.010;8.946;2024-02-28T03:00:38;97005.97;;;10.48;100.00
19596;BME280;9945;46.010;8.946;2024-02-28T03:03:05;97012.50;;;10.44;100.00
19596;BME280;9945;46.010;8.946;2024-02-28T03:05:32;97007.63;;;10.31;100.00
19596;BME280;9945;46.010;8.946;2024-02-28T03:07:58;97013.13;;;10.38;100.00
19596;BME280;9945;46.010;8.946;2024-02-28T03:10:25;97017.81;;;10.34;100.00
19596;BME280;9945;46.010;8.946;2024-02-28T03:12:52;97014.91;;;10.37;100.00
19596;BME280;9945;46.010;8.946;2024-02-28T03:15:20;97020.97;;;10.38;100.00
19596;BME280;9945;46.010;8.946;2024-02-28T03:17:47;97016.59;;;10.46;100.00
19596;BME280;9945;46.010;8.946;2024-02-28T03:20:14;97020.84;;;10.47;100.00
19596;BME280;9945;46.010;8.946;2024-02-28T03:22:41;97024.16;;;10.49;100.00
19596;BME280;9945;46.010;8.946;2024-02-28T03:25:09;97021.22;;;10.52;100.00
19596;BME280;9945;46.010;8.946;2024-02-28T03:27:36;97025.13;;;10.48;100.00
19596;BME280;9945;46.010;8.946;2024-02-28T03:30:04;97034.56;;;10.41;100.00
19596;BME280;9945;46.010;8.946;2024-02-28T03:32:32;97037.16;;;10.41;100.00
19596;BME280;9945;46.010;8.946;2024-02-28T03:34:59;97028.97;;;10.36;100.00
19596;BME280;9945;46.010;8.946;2024-02-28T03:37:26;97035.84;;;10.37;100.00
19596;BME280;9945;46.010;8.946;2024-02-28T03:39:53;97036.94;;;10.52;100.00
19596;BME280;9945;46.010;8.946;2024-02-28T03:42:20;97040.59;;;10.42;100.00
19596;BME280;9945;46.010;8.946;2024-02-28T03:44:47;97040.59;;;10.42;100.00
19596;BME280;9945;46.010;8.946;2024-02-28T03:47:14;97041.66;;;10.49;100.00
19596;BME280;9945;46.010;8.946;2024-02-28T03:49:42;97039.56;;;10.52;100.00
19596;BME280;9945;46.010;8.946;2024-02-28T03:52:09;97042.19;;;10.52;100.00
19596;BME280;9945;46.010;8.946;2024-02-28T03:54:36;97052.31;;;10.55;100.00
19596;BME280;9945;46.010;8.946;2024-02-28T03:57:03;97051.44;;;10.47;100.00
19596;BME280;9945;46.010;8.946;2024-02-28T03:59:30;97047.63;;;10.41;100.00
19596;BME280;9945;46.010;8.946;2024-02-28T04:01:57;97047.19;;;10.46;100.00
19596;BME280;9945;46.010;8.946;2024-02-28T04:04:24;97042.19;;;10.52;100.00
19596;BME280;9945;46.010;8.946;2024-02-28T04:06:52;97038.88;;;10.50;100.00
19596;BME280;9945;46.010;8.946;2024-02-28T04:09:19;97046.44;;;10.53;100.00
19596;BME280;9945;46.010;8.946;2024-02-28T04:11:46;97049.63;;;10.47;100.00
19596;BME280;9945;46.010;8.946;2024-02-28T04:14:13;97053.69;;;10.42;100.00
19596;BME280;9945;46.010;8.946;2024-02-28T04:16:44;97051.63;;;10.28;100.00
19596;BME280;9945;46.010;8.946;2024-02-28T04:19:10;97050.53;;;10.38;100.00
19596;BME280;9945;46.010;8.946;2024-02-28T04:21:38;97042.03;;;10.54;100.00
19596;BME280;9945;46.010;8.946;2024-02-28T04:24:10;97045.91;;;10.50;100.00
19596;BME280;9945;46.010;8.946;2024-02-28T04:26:37;97066.34;;;10.29;100.00
19596;BME280;9945;46.010;8.946;2024-02-28T04:29:04;97060.03;;;10.39;100.00
19596;BME280;9945;46.010;8.946;2024-02-28T04:31:33;97061.41;;;10.43;100.00
19596;BME280;9945;46.010;8.946;2024-02-28T04:34:00;97061.41;;;10.43;100.00
19596;BME280;9945;46.010;8.946;2024-02-28T04:36:27;97063.69;;;10.46;100.00
19596;BME280;9945;46.010;8.946;2024-02-28T04:38:53;97065.53;;;10.46;100.00
19596;BME280;9945;46.010;8.946;2024-02-28T04:41:22;97072.31;;;10.39;100.00
19596;BME280;9945;46.010;8.946;2024-02-28T04:43:48;97080.41;;;10.45;100.00
19596;BME280;9945;46.010;8.946;2024-02-28T04:46:15;97080.84;;;10.41;100.00
19596;BME280;9945;46.010;8.946;2024-02-28T04:48:42;97082.47;;;10.24;100.00
19596;BME280;9945;46.010;8.946;2024-02-28T04:51:09;97091.00;;;10.44;100.00
19596;BME280;9945;46.010;8.946;2024-02-28T04:53:36;97091.94;;;10.07;100.00
19596;BME280;9945;46.010;8.946;2024-02-28T04:56:03;97095.03;;;10.38;100.00
19596;BME280;9945;46.010;8.946;2024-02-28T04:58:32;97096.59;;;10.49;100.00
19596;BME280;9945;46.010;8.946;2024-02-28T05:00:59;97102.53;;;10.33;100.00
19596;BME280;9945;46.010;8.946;2024-02-28T05:03:25;97108.28;;;10.37;100.00
19596;BME280;9945;46.010;8.946;2024-02-28T05:05:52;97107.44;;;9.91;100.00
19596;BME280;9945;46.010;8.946;2024-02-28T05:08:20;97111.34;;;9.60;100.00
19596;BME280;9945;46.010;8.946;2024-02-28T05:10:46;97119.59;;;9.82;100.00
19596;BME280;9945;46.010;8.946;2024-02-28T05:13:13;97111.53;;;10.21;100.00
19596;BME280;9945;46.010;8.946;2024-02-28T05:15:41;97125.63;;;10.20;100.00
19596;BME280;9945;46.010;8.946;2024-02-28T05:18:08;97131.00;;;10.18;100.00
19596;BME280;9945;46.010;8.946;2024-02-28T05:20:34;97128.63;;;10.15;100.00
19596;BME280;9945;46.010;8.946;2024-02-28T05:23:02;97131.31;;;10.33;100.00
19596;BME280;9945;46.010;8.946;2024-02-28T05:25:28;97129.38;;;10.35;100.00
19596;BME280;9945;46.010;8.946;2024-02-28T05:27:55;97142.75;;;10.32;100.00
19596;BME280;9945;46.010;8.946;2024-02-28T05:30:22;97144.25;;;10.35;100.00
19596;BME280;9945;46.010;8.946;2024-02-28T05:32:50;97144.25;;;10.52;100.00
19596;BME280;9945;46.010;8.946;2024-02-28T05:35:17;97157.03;;;10.55;100.00
19596;BME280;9945;46.010;8.946;2024-02-28T05:37:44;97154.66;;;10.44;100.00
19596;BME280;9945;46.010;8.946;2024-02-28T05:40:12;97162.44;;;10.54;100.00
19596;BME280;9945;46.010;8.946;2024-02-28T05:42:39;97166.69;;;10.37;100.00
19596;BME280;9945;46.010;8.946;2024-02-28T05:45:08;97173.72;;;10.54;100.00
19596;BME280;9945;46.010;8.946;2024-02-28T05:47:36;97170.91;;;10.38;100.00
19596;BME280;9945;46.010;8.946;2024-02-28T05:50:05;97174.09;;;10.42;100.00
19596;BME280;9945;46.010;8.946;2024-02-28T05:52:31;97174.22;;;10.40;100.00
19596;BME280;9945;46.010;8.946;2024-02-28T05:54:58;97184.09;;;10.46;100.00
19596;BME280;9945;46.010;8.946;2024-02-28T05:57:25;97189.88;;;10.50;100.00
19596;BME280;9945;46.010;8.946;2024-02-28T05:59:52;97188.69;;;10.62;100.00
19596;BME280;9945;46.010;8.946;2024-02-28T06:02:18;97190.09;;;10.56;100.00
19596;BME280;9945;46.010;8.946;2024-02-28T06:04:45;97199.59;;;10.57;100.00
19596;BME280;9945;46.010;8.946;2024-02-28T06:07:13;97203.19;;;10.56;100.00
19596;BME280;9945;46.010;8.946;2024-02-28T06:09:39;97208.56;;;10.73;100.00
19596;BME280;9945;46.010;8.946;2024-02-28T06:12:06;97204.84;;;10.75;100.00
19596;BME280;9945;46.010;8.946;2024-02-28T06:14:33;97212.81;;;10.56;100.00
19596;BME280;9945;46.010;8.946;2024-02-28T06:16:59;97208.28;;;10.58;100.00
19596;BME280;9945;46.010;8.946;2024-02-28T06:19:26;97209.47;;;10.63;100.00
19596;BME280;9945;46.010;8.946;2024-02-28T06:21:53;97216.00;;;10.77;100.00
19596;BME280;9945;46.010;8.946;2024-02-28T06:24:21;97218.84;;;10.84;100.00
19596;BME280;9945;46.010;8.946;2024-02-28T06:26:48;97213.47;;;10.85;100.00
19596;BME280;9945;46.010;8.946;2024-02-28T06:29:15;97215.84;;;10.79;100.00
19596;BME280;9945;46.010;8.946;2024-02-28T06:31:41;97221.09;;;10.79;100.00
19596;BME280;9945;46.010;8.946;2024-02-28T06:34:08;97224.00;;;10.76;100.00
19596;BME280;9945;46.010;8.946;2024-02-28T06:36:36;97230.88;;;10.77;100.00
19596;BME280;9945;46.010;8.946;2024-02-28T06:39:02;97222.06;;;10.78;100.00
19596;BME280;9945;46.010;8.946;2024-02-28T06:41:31;97224.22;;;10.82;100.00
19596;BME280;9945;46.010;8.946;2024-02-28T06:43:58;97222.56;;;10.63;100.00
19596;BME280;9945;46.010;8.946;2024-02-28T06:46:25;97223.94;;;10.85;100.00
19596;BME280;9945;46.010;8.946;2024-02-28T06:48:52;97228.78;;;10.80;100.00
19596;BME280;9945;46.010;8.946;2024-02-28T06:51:18;97229.31;;;10.84;100.00
19596;BME280;9945;46.010;8.946;2024-02-28T06:53:45;97229.94;;;10.95;100.00
19596;BME280;9945;46.010;8.946;2024-02-28T06:56:11;97227.97;;;10.62;100.00
19596;BME280;9945;46.010;8.946;2024-02-28T06:58:39;97234.53;;;10.66;100.00
19596;BME280;9945;46.010;8.946;2024-02-28T07:01:06;97238.66;;;10.69;100.00
19596;BME280;9945;46.010;8.946;2024-02-28T07:03:32;97237.00;;;10.68;100.00
19596;BME280;9945;46.010;8.946;2024-02-28T07:05:59;97238.38;;;10.72;100.00
19596;BME280;9945;46.010;8.946;2024-02-28T07:08:26;97245.56;;;10.70;100.00
19596;BME280;9945;46.010;8.946;2024-02-28T07:10:52;97241.00;;;10.72;100.00
19596;BME280;9945;46.010;8.946;2024-02-28T07:13:19;97240.41;;;10.78;100.00
19596;BME280;9945;46.010;8.946;2024-02-28T07:15:47;97233.38;;;10.78;100.00
19596;BME280;9945;46.010;8.946;2024-02-28T07:18:15;97241.59;;;10.83;100.00
19596;BME280;9945;46.010;8.946;2024-02-28T07:20:41;97241.31;;;10.86;100.00
19596;BME280;9945;46.010;8.946;2024-02-28T07:23:08;97245.09;;;10.74;100.00
19596;BME280;9945;46.010;8.946;2024-02-28T07:25:34;97246.53;;;10.69;100.00
19596;BME280;9945;46.010;8.946;2024-02-28T07:28:01;97248.75;;;10.81;100.00
19596;BME280;9945;46.010;8.946;2024-02-28T07:30:28;97243.59;;;10.89;100.00
19596;BME280;9945;46.010;8.946;2024-02-28T07:32:57;97249.53;;;10.91;100.00
19596;BME280;9945;46.010;8.946;2024-02-28T07:35:23;97242.63;;;10.90;100.00
19596;BME280;9945;46.010;8.946;2024-02-28T07:37:50;97249.44;;;10.83;100.00
19596;BME280;9945;46.010;8.946;2024-02-28T07:40:17;97247.78;;;10.82;100.00
19596;BME280;9945;46.010;8.946;2024-02-28T07:42:43;97252.97;;;10.92;100.00
19596;BME280;9945;46.010;8.946;2024-02-28T07:45:10;97256.41;;;10.92;100.00
19596;BME280;9945;46.010;8.946;2024-02-28T07:47:36;97253.66;;;10.94;100.00
19596;BME280;9945;46.010;8.946;2024-02-28T07:50:06;97256.63;;;10.99;100.00
19596;BME280;9945;46.010;8.946;2024-02-28T07:52:33;97264.13;;;10.94;100.00
19596;BME280;9945;46.010;8.946;2024-02-28T07:55:00;97262.56;;;11.01;100.00
19596;BME280;9945;46.010;8.946;2024-02-28T07:57:28;97263.06;;;10.87;100.00
19596;BME280;9945;46.010;8.946;2024-02-28T07:59:54;97268.81;;;10.73;100.00
19596;BME280;9945;46.010;8.946;2024-02-28T08:02:21;97270.59;;;10.54;100.00
19596;BME280;9945;46.010;8.946;2024-02-28T08:04:48;97271.66;;;10.61;100.00
19596;BME280;9945;46.010;8.946;2024-02-28T08:07:17;97282.25;;;10.60;100.00
19596;BME280;9945;46.010;8.946;2024-02-28T08:09:44;97281.00;;;10.82;100.00
19596;BME280;9945;46.010;8.946;2024-02-28T08:12:11;97284.94;;;10.95;100.00
19596;BME280;9945;46.010;8.946;2024-02-28T08:14:37;97287.78;;;11.02;100.00
19596;BME280;9945;46.010;8.946;2024-02-28T08:17:04;97291.38;;;11.01;100.00
19596;BME280;9945;46.010;8.946;2024-02-28T08:19:30;97291.59;;;11.08;100.00
19596;BME280;9945;46.010;8.946;2024-02-28T08:21:57;97298.63;;;11.07;100.00
19596;BME280;9945;46.010;8.946;2024-02-28T08:24:25;97303.41;;;10.94;100.00
19596;BME280;9945;46.010;8.946;2024-02-28T08:26:52;97305.81;;;10.87;100.00
19596;BME280;9945;46.010;8.946;2024-02-28T08:29:18;97310.69;;;10.73;100.00
19596;BME280;9945;46.010;8.946;2024-02-28T08:31:45;97321.75;;;10.94;100.00
19596;BME280;9945;46.010;8.946;2024-02-28T08:34:11;97310.91;;;10.61;100.00
19596;BME280;9945;46.010;8.946;2024-02-28T08:36:38;97316.34;;;10.78;100.00
19596;BME280;9945;46.010;8.946;2024-02-28T08:39:04;97326.16;;;10.93;100.00
19596;BME280;9945;46.010;8.946;2024-02-28T08:41:36;97327.44;;;11.07;100.00
19596;BME280;9945;46.010;8.946;2024-02-28T08:44:02;97329.72;;;11.20;100.00
19596;BME280;9945;46.010;8.946;2024-02-28T08:46:29;97331.31;;;11.30;100.00
19596;BME280;9945;46.010;8.946;2024-02-28T08:48:55;97330.41;;;11.40;100.00
19596;BME280;9945;46.010;8.946;2024-02-28T08:51:22;97331.75;;;11.44;100.00
19596;BME280;9945;46.010;8.946;2024-02-28T08:53:48;97334.44;;;11.34;100.00
19596;BME280;9945;46.010;8.946;2024-02-28T08:56:19;97345.47;;;11.37;100.00
19596;BME280;9945;46.010;8.946;2024-02-28T08:58:47;97348.97;;;11.46;100.00
19596;BME280;9945;46.010;8.946;2024-02-28T09:01:13;97349.13;;;11.62;100.00
19596;BME280;9945;46.010;8.946;2024-02-28T09:03:41;97351.59;;;11.46;100.00
19596;BME280;9945;46.010;8.946;2024-02-28T09:06:08;97350.63;;;11.65;100.00
19596;BME280;9945;46.010;8.946;2024-02-28T09:08:34;97356.31;;;11.60;100.00
19596;BME280;9945;46.010;8.946;2024-02-28T09:11:01;97352.44;;;11.47;100.00
19596;BME280;9945;46.010;8.946;2024-02-28T09:13:29;97358.50;;;11.65;100.00
19596;BME280;9945;46.010;8.946;2024-02-28T09:15:57;97358.84;;;11.70;100.00
19596;BME280;9945;46.010;8.946;2024-02-28T09:18:24;97369.88;;;11.73;100.00
19596;BME280;9945;46.010;8.946;2024-02-28T09:20:51;97367.63;;;11.79;100.00
19596;BME280;9945;46.010;8.946;2024-02-28T09:23:18;97368.72;;;11.41;100.00
19596;BME280;9945;46.010;8.946;2024-02-28T09:25:45;97370.91;;;11.27;100.00
19596;BME280;9945;46.010;8.946;2024-02-28T09:28:11;97363.41;;;11.32;100.00
19596;BME280;9945;46.010;8.946;2024-02-28T09:30:41;97372.31;;;11.57;100.00
19596;BME280;9945;46.010;8.946;2024-02-28T09:33:09;97374.97;;;11.75;100.00
19596;BME280;9945;46.010;8.946;2024-02-28T09:35:35;97380.53;;;11.90;100.00
19596;BME280;9945;46.010;8.946;2024-02-28T09:38:02;97387.09;;;11.94;100.00
19596;BME280;9945;46.010;8.946;2024-02-28T09:40:29;97381.09;;;12.01;100.00
19596;BME280;9945;46.010;8.946;2024-02-28T09:42:57;97378.13;;;11.96;100.00
19596;BME280;9945;46.010;8.946;2024-02-28T09:45:30;97382.50;;;12.13;100.00
19596;BME280;9945;46.010;8.946;2024-02-28T09:47:57;97382.75;;;12.02;100.00
19596;BME280;9945;46.010;8.946;2024-02-28T09:50:26;97387.28;;;12.18;100.00
19596;BME280;9945;46.010;8.946;2024-02-28T09:52:53;97380.03;;;12.38;100.00
19596;BME280;9945;46.010;8.946;2024-02-28T09:55:20;97385.09;;;12.31;100.00
19596;BME280;9945;46.010;8.946;2024-02-28T09:57:47;97383.78;;;12.35;100.00
19596;BME280;9945;46.010;8.946;2024-02-28T10:00:14;97382.38;;;12.41;100.00
19596;BME280;9945;46.010;8.946;2024-02-28T10:02:42;97374.72;;;12.56;100.00
19596;BME280;9945;46.010;8.946;2024-02-28T10:05:09;97381.66;;;12.65;100.00
19596;BME280;9945;46.010;8.946;2024-02-28T10:07:37;97375.97;;;12.77;100.00
19596;BME280;9945;46.010;8.946;2024-02-28T10:10:05;97383.84;;;12.77;100.00
19596;BME280;9945;46.010;8.946;2024-02-28T10:12:33;97385.41;;;12.96;100.00
19596;BME280;9945;46.010;8.946;2024-02-28T10:14:59;97384.69;;;12.78;100.00
19596;BME280;9945;46.010;8.946;2024-02-28T10:17:26;97387.94;;;12.72;100.00
19596;BME280;9945;46.010;8.946;2024-02-28T10:19:53;97384.84;;;12.84;100.00
19596;BME280;9945;46.010;8.946;2024-02-28T10:22:19;97385.38;;;12.88;100.00
19596;BME280;9945;46.010;8.946;2024-02-28T10:24:47;97383.28;;;13.42;100.00
19596;BME280;9945;46.010;8.946;2024-02-28T10:27:15;97390.41;;;13.66;100.00
19596;BME280;9945;46.010;8.946;2024-02-28T10:29:42;97386.94;;;13.73;100.00
19596;BME280;9945;46.010;8.946;2024-02-28T10:32:09;97391.16;;;14.63;100.00
19596;BME280;9945;46.010;8.946;2024-02-28T10:34:37;97388.94;;;15.84;100.00
19596;BME280;9945;46.010;8.946;2024-02-28T10:37:03;97391.41;;;16.60;98.35
19596;BME280;9945;46.010;8.946;2024-02-28T10:39:31;97388.94;;;17.32;85.73
19596;BME280;9945;46.010;8.946;2024-02-28T10:42:03;97400.81;;;16.78;82.72
19596;BME280;9945;46.010;8.946;2024-02-28T10:44:30;97402.53;;;16.18;85.95
19596;BME280;9945;46.010;8.946;2024-02-28T10:46:58;97397.69;;;15.84;89.25
19596;BME280;9945;46.010;8.946;2024-02-28T10:49:26;97399.22;;;15.56;93.31
19596;BME280;9945;46.010;8.946;2024-02-28T10:51:53;97400.44;;;15.37;91.94
19596;BME280;9945;46.010;8.946;2024-02-28T10:54:22;97397.81;;;15.37;93.22
19596;BME280;9945;46.010;8.946;2024-02-28T10:56:51;97399.50;;;15.30;92.01
19596;BME280;9945;46.010;8.946;2024-02-28T10:59:19;97394.75;;;15.57;86.50
19596;BME280;9945;46.010;8.946;2024-02-28T11:01:47;97404.06;;;15.67;86.25
19596;BME280;9945;46.010;8.946;2024-02-28T11:04:16;97400.91;;;15.41;88.84
19596;BME280;9945;46.010;8.946;2024-02-28T11:06:48;97396.94;;;15.76;86.84
19596;BME280;9945;46.010;8.946;2024-02-28T11:09:19;97394.94;;;15.78;88.46
19596;BME280;9945;46.010;8.946;2024-02-28T11:11:45;97395.56;;;15.57;87.90
19596;BME280;9945;46.010;8.946;2024-02-28T11:14:14;97392.69;;;15.67;86.17
19596;BME280;9945;46.010;8.946;2024-02-28T11:16:42;97391.19;;;15.95;88.00
19596;BME280;9945;46.010;8.946;2024-02-28T11:19:18;97384.53;;;16.22;87.49
19596;BME280;9945;46.010;8.946;2024-02-28T11:21:45;97381.50;;;16.92;82.83
19596;BME280;9945;46.010;8.946;2024-02-28T11:24:22;97384.41;;;17.48;79.61
19596;BME280;9945;46.010;8.946;2024-02-28T11:26:48;97374.63;;;17.84;76.03
19596;BME280;9945;46.010;8.946;2024-02-28T11:29:16;97376.75;;;18.17;75.61
19596;BME280;9945;46.010;8.946;2024-02-28T11:31:44;97381.25;;;18.16;71.74
19596;BME280;9945;46.010;8.946;2024-02-28T11:34:10;97375.13;;;18.15;67.54
19596;BME280;9945;46.010;8.946;2024-02-28T11:36:37;97371.63;;;18.36;68.24
19596;BME280;9945;46.010;8.946;2024-02-28T11:39:05;97372.84;;;18.12;68.96
19596;BME280;9945;46.010;8.946;2024-02-28T11:41:32;97370.13;;;18.27;67.35
19596;BME280;9945;46.010;8.946;2024-02-28T11:43:58;97365.94;;;18.46;65.76
19596;BME280;9945;46.010;8.946;2024-02-28T11:46:26;97358.41;;;18.71;66.78
19596;BME280;9945;46.010;8.946;2024-02-28T11:48:55;97351.81;;;18.60;67.23
19596;BME280;9945;46.010;8.946;2024-02-28T11:51:22;97348.72;;;18.98;67.28
19596;BME280;9945;46.010;8.946;2024-02-28T11:53:48;97348.47;;;19.34;65.01
19596;BME280;9945;46.010;8.946;2024-02-28T11:56:15;97341.81;;;18.97;64.43
19596;BME280;9945;46.010;8.946;2024-02-28T11:58:49;97347.13;;;19.51;62.48
19596;BME280;9945;46.010;8.946;2024-02-28T12:01:16;97342.88;;;20.02;62.12
19596;BME280;9945;46.010;8.946;2024-02-28T12:03:44;97341.03;;;20.56;58.65
19596;BME280;9945;46.010;8.946;2024-02-28T12:06:12;97338.31;;;20.82;57.56
19596;BME280;9945;46.010;8.946;2024-02-28T12:08:39;97333.28;;;21.12;55.41
19596;BME280;9945;46.010;8.946;2024-02-28T12:11:06;97334.16;;;20.93;57.33
19596;BME280;9945;46.010;8.946;2024-02-28T12:13:33;97329.63;;;21.06;57.08
19596;BME280;9945;46.010;8.946;2024-02-28T12:16:00;97327.28;;;21.30;55.44
19596;BME280;9945;46.010;8.946;2024-02-28T12:18:27;97324.22;;;21.64;53.54
19596;BME280;9945;46.010;8.946;2024-02-28T12:20:53;97320.84;;;21.44;54.47
19596;BME280;9945;46.010;8.946;2024-02-28T12:23:21;97315.06;;;21.53;52.88
19596;BME280;9945;46.010;8.946;2024-02-28T12:25:48;97306.78;;;21.68;52.31
19596;BME280;9945;46.010;8.946;2024-02-28T12:28:14;97303.31;;;21.68;51.85
19596;BME280;9945;46.010;8.946;2024-02-28T12:30:41;97295.91;;;22.01;51.68
19596;BME280;9945;46.010;8.946;2024-02-28T12:33:09;97285.81;;;22.03;51.85
19596;BME280;9945;46.010;8.946;2024-02-28T12:35:36;97285.81;;;22.64;48.66
19596;BME280;9945;46.010;8.946;2024-02-28T12:38:04;97280.84;;;21.82;49.57
19596;BME280;9945;46.010;8.946;2024-02-28T12:40:32;97280.97;;;21.94;49.92
19596;BME280;9945;46.010;8.946;2024-02-28T12:42:59;97272.38;;;22.16;47.89
19596;BME280;9945;46.010;8.946;2024-02-28T12:45:26;97276.53;;;23.52;46.83
19596;BME280;9945;46.010;8.946;2024-02-28T12:47:53;97267.59;;;23.58;45.47
19596;BME280;9945;46.010;8.946;2024-02-28T12:50:22;97269.19;;;24.12;45.14
19596;BME280;9945;46.010;8.946;2024-02-28T12:52:50;97257.09;;;24.56;43.07
19596;BME280;9945;46.010;8.946;2024-02-28T12:55:19;97265.22;;;24.03;43.38
19596;BME280;9945;46.010;8.946;2024-02-28T12:57:48;97256.84;;;22.86;45.51
19596;BME280;9945;46.010;8.946;2024-02-28T13:00:16;97252.03;;;23.55;44.74
19596;BME280;9945;46.010;8.946;2024-02-28T13:02:44;97258.84;;;23.51;43.91